sensor_id;sensor_type;location;lat;lon;timestamp;temperature;humidity
74376;HTU21D;62812;55.188;61.302;2023-04-24T00:00:22;9.68;47.28
74376;HTU21D;62812;55.188;61.302;2023-04-24T00:02:49;9.71;47.32
74376;HTU21D;62812;55.188;61.302;2023-04-24T00:05:17;9.67;47.03
74376;HTU21D;62812;55.188;61.302;2023-04-24T00:07:44;9.66;47.76
74376;HTU21D;62812;55.188;61.302;2023-04-24T00:10:15;9.65;47.91
74376;HTU21D;62812;55.188;61.302;2023-04-24T00:12:41;9.57;47.26
74376;HTU21D;62812;55.188;61.302;2023-04-24T00:15:09;9.51;47.51
74376;HTU21D;62812;55.188;61.302;2023-04-24T00:17:40;9.46;47.92
74376;HTU21D;62812;55.188;61.302;2023-04-24T00:20:07;9.41;47.89
74376;HTU21D;62812;55.188;61.302;2023-04-24T00:22:34;9.36;47.78
74376;HTU21D;62812;55.188;61.302;2023-04-24T00:25:01;9.25;48.57
74376;HTU21D;62812;55.188;61.302;2023-04-24T00:27:55;9.22;48.35
74376;HTU21D;62812;55.188;61.302;2023-04-24T00:30:21;9.15;48.75
74376;HTU21D;62812;55.188;61.302;2023-04-24T00:32:48;9.08;49.14
74376;HTU21D;62812;55.188;61.302;2023-04-24T00:35:14;9.03;49.13
74376;HTU21D;62812;55.188;61.302;2023-04-24T00:37:41;9.01;48.87
74376;HTU21D;62812;55.188;61.302;2023-04-24T00:40:09;9.02;49.19
74376;HTU21D;62812;55.188;61.302;2023-04-24T00:42:35;8.98;49.01
74376;HTU21D;62812;55.188;61.302;2023-04-24T00:45:05;8.98;49.25
74376;HTU21D;62812;55.188;61.302;2023-04-24T00:47:33;8.96;49.23
74376;HTU21D;62812;55.188;61.302;2023-04-24T00:50:01;8.97;49.43
74376;HTU21D;62812;55.188;61.302;2023-04-24T00:52:28;8.98;49.12
74376;HTU21D;62812;55.188;61.302;2023-04-24T00:54:57;9.03;49.43
74376;HTU21D;62812;55.188;61.302;2023-04-24T00:57:24;9.07;49.13
74376;HTU21D;62812;55.188;61.302;2023-04-24T00:59:52;9.17;48.66
74376;HTU21D;62812;55.188;61.302;2023-04-24T01:02:41;9.25;48.70
74376;HTU21D;62812;55.188;61.302;2023-04-24T01:05:12;9.39;49.13
74376;HTU21D;62812;55.188;61.302;2023-04-24T01:07:41;9.47;47.97
74376;HTU21D;62812;55.188;61.302;2023-04-24T01:10:13;9.62;47.77
74376;HTU21D;62812;55.188;61.302;2023-04-24T01:12:40;9.70;47.56
74376;HTU21D;62812;55.188;61.302;2023-04-24T01:15:09;9.79;46.97
74376;HTU21D;62812;55.188;61.302;2023-04-24T01:17:36;9.93;46.76
74376;HTU21D;62812;55.188;61.302;2023-04-24T01:20:05;10.08;46.24
74376;HTU21D;62812;55.188;61.302;2023-04-24T01:23:03;10.29;46.86
74376;HTU21D;62812;55.188;61.302;2023-04-24T01:25:30;10.58;45.62
74376;HTU21D;62812;55.188;61.302;2023-04-24T01:27:58;10.98;45.77
74376;HTU21D;62812;55.188;61.302;2023-04-24T01:30:25;11.47;45.38
74376;HTU21D;62812;55.188;61.302;2023-04-24T01:32:53;11.70;44.62
74376;HTU21D;62812;55.188;61.302;2023-04-24T01:35:20;11.75;42.76
74376;HTU21D;62812;55.188;61.302;2023-04-24T01:37:46;11.77;42.19
74376;HTU21D;62812;55.188;61.302;2023-04-24T01:40:16;11.82;42.08
74376;HTU21D;62812;55.188;61.302;2023-04-24T01:42:44;11.88;41.49
74376;HTU21D;62812;55.188;61.302;2023-04-24T01:45:11;11.94;42.00
74376;HTU21D;62812;55.188;61.302;2023-04-24T01:47:41;12.05;41.59
74376;HTU21D;62812;55.188;61.302;2023-04-24T01:50:09;12.21;41.11
74376;HTU21D;62812;55.188;61.302;2023-04-24T01:52:36;12.43;40.32
74376;HTU21D;62812;55.188;61.302;2023-04-24T01:55:03;12.62;39.83
74376;HTU21D;62812;55.188;61.302;2023-04-24T01:57:32;12.73;39.01
74376;HTU21D;62812;55.188;61.302;2023-04-24T02:00:00;12.87;38.88
74376;HTU21D;62812;55.188;61.302;2023-04-24T02:02:32;13.54;50.94
74376;HTU21D;62812;55.188;61.302;2023-04-24T02:04:59;15.39;49.98
74376;HTU21D;62812;55.188;61.302;2023-04-24T02:07:30;17.73;45.97
74376;HTU21D;62812;55.188;61.302;2023-04-24T02:10:00;18.86;43.10
74376;HTU21D;62812;55.188;61.302;2023-04-24T02:16:14;21.38;24.95
74376;HTU21D;62812;55.188;61.302;2023-04-24T02:18:40;20.11;25.06
74376;HTU21D;62812;55.188;61.302;2023-04-24T02:21:07;19.12;28.03
74376;HTU21D;62812;55.188;61.302;2023-04-24T02:23:34;18.89;27.52
74376;HTU21D;62812;55.188;61.302;2023-04-24T02:26:01;19.16;29.02
74376;HTU21D;62812;55.188;61.302;2023-04-24T02:28:28;19.84;31.88
74376;HTU21D;62812;55.188;61.302;2023-04-24T02:30:57;19.61;26.30
74376;HTU21D;62812;55.188;61.302;2023-04-24T02:33:27;18.79;27.29
74376;HTU21D;62812;55.188;61.302;2023-04-24T02:35:54;18.21;28.12
74376;HTU21D;62812;55.188;61.302;2023-04-24T02:38:21;17.61;29.29
74376;HTU21D;62812;55.188;61.302;2023-04-24T02:40:47;17.36;29.31
74376;HTU21D;62812;55.188;61.302;2023-04-24T02:43:14;17.24;30.07
74376;HTU21D;62812;55.188;61.302;2023-04-24T02:45:41;17.15;30.09
74376;HTU21D;62812;55.188;61.302;2023-04-24T02:48:08;17.25;30.64
74376;HTU21D;62812;55.188;61.302;2023-04-24T02:50:37;17.40;30.15
74376;HTU21D;62812;55.188;61.302;2023-04-24T02:53:05;17.59;30.61
74376;HTU21D;62812;55.188;61.302;2023-04-24T02:55:32;17.76;30.77
74376;HTU21D;62812;55.188;61.302;2023-04-24T02:57:59;17.80;30.10
74376;HTU21D;62812;55.188;61.302;2023-04-24T03:00:27;17.85;29.40
74376;HTU21D;62812;55.188;61.302;2023-04-24T03:02:55;17.98;29.24
74376;HTU21D;62812;55.188;61.302;2023-04-24T03:05:22;18.20;29.51
74376;HTU21D;62812;55.188;61.302;2023-04-24T03:07:50;18.55;28.86
74376;HTU21D;62812;55.188;61.302;2023-04-24T03:10:19;18.37;27.67
74376;HTU21D;62812;55.188;61.302;2023-04-24T03:12:47;18.13;28.27
74376;HTU21D;62812;55.188;61.302;2023-04-24T03:15:14;17.98;28.79
74376;HTU21D;62812;55.188;61.302;2023-04-24T03:17:42;17.77;29.13
74376;HTU21D;62812;55.188;61.302;2023-04-24T03:20:10;17.63;29.26
74376;HTU21D;62812;55.188;61.302;2023-04-24T03:22:37;17.63;30.92
74376;HTU21D;62812;55.188;61.302;2023-04-24T03:25:10;17.58;29.72
74376;HTU21D;62812;55.188;61.302;2023-04-24T03:27:37;17.69;29.16
74376;HTU21D;62812;55.188;61.302;2023-04-24T03:30:05;19.12;43.77
74376;HTU21D;62812;55.188;61.302;2023-04-24T03:32:35;21.09;41.93
74376;HTU21D;62812;55.188;61.302;2023-04-24T03:35:06;21.48;24.49
74376;HTU21D;62812;55.188;61.302;2023-04-24T03:37:36;20.56;25.37
74376;HTU21D;62812;55.188;61.302;2023-04-24T03:40:05;21.48;37.25
74376;HTU21D;62812;55.188;61.302;2023-04-24T03:42:33;22.57;25.89
74376;HTU21D;62812;55.188;61.302;2023-04-24T03:45:00;23.14;34.25
74376;HTU21D;62812;55.188;61.302;2023-04-24T03:47:28;23.94;32.83
74376;HTU21D;62812;55.188;61.302;2023-04-24T03:54:25;26.31;26.88
74376;HTU21D;62812;55.188;61.302;2023-04-24T03:56:54;26.67;14.98
74376;HTU21D;62812;55.188;61.302;2023-04-24T03:59:23;24.58;17.51
74376;HTU21D;62812;55.188;61.302;2023-04-24T04:01:51;23.05;20.72
74376;HTU21D;62812;55.188;61.302;2023-04-24T04:04:20;22.23;21.02
74376;HTU21D;62812;55.188;61.302;2023-04-24T04:06:47;21.52;22.97
74376;HTU21D;62812;55.188;61.302;2023-04-24T04:09:16;20.95;23.85
74376;HTU21D;62812;55.188;61.302;2023-04-24T04:11:43;20.85;25.01
74376;HTU21D;62812;55.188;61.302;2023-04-24T04:14:11;20.76;24.27
74376;HTU21D;62812;55.188;61.302;2023-04-24T04:16:38;20.70;25.29
74376;HTU21D;62812;55.188;61.302;2023-04-24T04:19:05;20.70;26.26
74376;HTU21D;62812;55.188;61.302;2023-04-24T04:21:33;20.76;25.03
74376;HTU21D;62812;55.188;61.302;2023-04-24T04:24:05;20.61;25.17
74376;HTU21D;62812;55.188;61.302;2023-04-24T04:26:31;20.48;25.29
74376;HTU21D;62812;55.188;61.302;2023-04-24T04:28:59;20.37;25.46
74376;HTU21D;62812;55.188;61.302;2023-04-24T04:31:29;20.40;25.41
74376;HTU21D;62812;55.188;61.302;2023-04-24T04:34:00;20.11;25.56
74376;HTU21D;62812;55.188;61.302;2023-04-24T04:36:28;20.01;26.14
74376;HTU21D;62812;55.188;61.302;2023-04-24T04:38:58;20.13;27.32
74376;HTU21D;62812;55.188;61.302;2023-04-24T04:41:27;20.03;26.94
74376;HTU21D;62812;55.188;61.302;2023-04-24T04:44:02;20.55;26.04
74376;HTU21D;62812;55.188;61.302;2023-04-24T04:46:32;20.88;25.28
74376;HTU21D;62812;55.188;61.302;2023-04-24T04:49:01;20.71;25.82
74376;HTU21D;62812;55.188;61.302;2023-04-24T04:51:31;20.75;26.43
74376;HTU21D;62812;55.188;61.302;2023-04-24T04:53:58;21.47;35.28
74376;HTU21D;62812;55.188;61.302;2023-04-24T04:56:25;23.42;32.41
74376;HTU21D;62812;55.188;61.302;2023-04-24T04:58:52;25.21;28.03
74376;HTU21D;62812;55.188;61.302;2023-04-24T05:01:21;25.80;25.14
74376;HTU21D;62812;55.188;61.302;2023-04-24T05:03:53;26.80;20.65
74376;HTU21D;62812;55.188;61.302;2023-04-24T05:06:20;27.11;20.58
74376;HTU21D;62812;55.188;61.302;2023-04-24T05:08:49;27.14;17.71
74376;HTU21D;62812;55.188;61.302;2023-04-24T05:11:18;27.01;15.91
74376;HTU21D;62812;55.188;61.302;2023-04-24T05:13:46;27.54;18.77
74376;HTU21D;62812;55.188;61.302;2023-04-24T05:16:13;27.52;18.42
74376;HTU21D;62812;55.188;61.302;2023-04-24T05:18:41;27.74;17.20
74376;HTU21D;62812;55.188;61.302;2023-04-24T05:21:09;28.15;16.19
74376;HTU21D;62812;55.188;61.302;2023-04-24T05:23:37;28.12;16.26
74376;HTU21D;62812;55.188;61.302;2023-04-24T05:26:04;28.24;15.92
74376;HTU21D;62812;55.188;61.302;2023-04-24T05:28:31;28.57;15.35
74376;HTU21D;62812;55.188;61.302;2023-04-24T05:31:01;28.49;15.78
74376;HTU21D;62812;55.188;61.302;2023-04-24T05:33:29;28.73;15.29
74376;HTU21D;62812;55.188;61.302;2023-04-24T05:36:18;28.75;14.99
74376;HTU21D;62812;55.188;61.302;2023-04-24T05:38:46;28.97;14.81
74376;HTU21D;62812;55.188;61.302;2023-04-24T05:41:14;28.97;15.13
74376;HTU21D;62812;55.188;61.302;2023-04-24T05:43:41;28.95;15.21
74376;HTU21D;62812;55.188;61.302;2023-04-24T05:46:11;29.09;15.05
74376;HTU21D;62812;55.188;61.302;2023-04-24T05:49:01;29.16;14.88
74376;HTU21D;62812;55.188;61.302;2023-04-24T05:51:33;28.89;15.21
74376;HTU21D;62812;55.188;61.302;2023-04-24T05:54:00;28.79;15.39
74376;HTU21D;62812;55.188;61.302;2023-04-24T05:56:28;28.74;15.40
74376;HTU21D;62812;55.188;61.302;2023-04-24T05:58:56;28.75;15.84
74376;HTU21D;62812;55.188;61.302;2023-04-24T06:01:23;28.78;15.90
74376;HTU21D;62812;55.188;61.302;2023-04-24T06:03:51;28.28;16.55
74376;HTU21D;62812;55.188;61.302;2023-04-24T06:06:20;27.04;17.99
74376;HTU21D;62812;55.188;61.302;2023-04-24T06:08:49;26.62;15.91
74376;HTU21D;62812;55.188;61.302;2023-04-24T06:11:16;25.32;20.03
74376;HTU21D;62812;55.188;61.302;2023-04-24T06:13:45;24.84;20.13
74376;HTU21D;62812;55.188;61.302;2023-04-24T06:16:12;26.06;19.61
74376;HTU21D;62812;55.188;61.302;2023-04-24T06:18:42;25.68;19.79
74376;HTU21D;62812;55.188;61.302;2023-04-24T06:21:10;24.54;18.44
74376;HTU21D;62812;55.188;61.302;2023-04-24T06:23:48;22.71;20.18
74376;HTU21D;62812;55.188;61.302;2023-04-24T06:26:17;21.91;25.77
74376;HTU21D;62812;55.188;61.302;2023-04-24T06:28:45;23.84;23.01
74376;HTU21D;62812;55.188;61.302;2023-04-24T06:31:17;24.78;21.18
74376;HTU21D;62812;55.188;61.302;2023-04-24T06:33:48;25.89;18.66
74376;HTU21D;62812;55.188;61.302;2023-04-24T06:36:22;26.46;17.28
74376;HTU21D;62812;55.188;61.302;2023-04-24T06:41:55;25.94;15.71
74376;HTU21D;62812;55.188;61.302;2023-04-24T06:44:25;25.15;19.14
74376;HTU21D;62812;55.188;61.302;2023-04-24T06:46:52;25.82;18.38
74376;HTU21D;62812;55.188;61.302;2023-04-24T06:49:19;25.75;18.55
74376;HTU21D;62812;55.188;61.302;2023-04-24T06:51:47;25.59;18.96
74376;HTU21D;62812;55.188;61.302;2023-04-24T06:54:24;26.05;18.11
74376;HTU21D;62812;55.188;61.302;2023-04-24T08:36:05;25.12;20.50
74376;HTU21D;62812;55.188;61.302;2023-04-24T08:38:39;25.52;19.76
74376;HTU21D;62812;55.188;61.302;2023-04-24T08:50:35;24.36;19.62
74376;HTU21D;62812;55.188;61.302;2023-04-24T08:53:22;23.02;20.51
74376;HTU21D;62812;55.188;61.302;2023-04-24T08:55:59;22.27;22.63
74376;HTU21D;62812;55.188;61.302;2023-04-24T10:06:33;24.66;18.99
74376;HTU21D;62812;55.188;61.302;2023-04-24T10:09:02;24.12;19.78
74376;HTU21D;62812;55.188;61.302;2023-04-24T10:11:34;24.02;22.08
74376;HTU21D;62812;55.188;61.302;2023-04-24T10:17:13;24.44;20.35
74376;HTU21D;62812;55.188;61.302;2023-04-24T10:19:41;24.33;21.55
74376;HTU21D;62812;55.188;61.302;2023-04-24T10:51:45;27.25;16.97
74376;HTU21D;62812;55.188;61.302;2023-04-24T10:54:27;27.57;16.71
74376;HTU21D;62812;55.188;61.302;2023-04-24T11:12:53;27.91;16.11
74376;HTU21D;62812;55.188;61.302;2023-04-24T11:15:23;27.84;16.66
74376;HTU21D;62812;55.188;61.302;2023-04-24T11:17:56;27.90;16.54
74376;HTU21D;62812;55.188;61.302;2023-04-24T11:20:24;27.96;16.31
74376;HTU21D;62812;55.188;61.302;2023-04-24T11:22:58;27.79;16.60
74376;HTU21D;62812;55.188;61.302;2023-04-24T11:25:33;27.90;16.30
74376;HTU21D;62812;55.188;61.302;2023-04-24T11:28:07;27.99;16.18
74376;HTU21D;62812;55.188;61.302;2023-04-24T12:45:14;27.99;15.13
74376;HTU21D;62812;55.188;61.302;2023-04-24T12:47:42;28.10;14.99
74376;HTU21D;62812;55.188;61.302;2023-04-24T12:50:12;28.03;15.09
74376;HTU21D;62812;55.188;61.302;2023-04-24T12:53:00;28.02;15.22
74376;HTU21D;62812;55.188;61.302;2023-04-24T12:55:29;27.94;15.42
74376;HTU21D;62812;55.188;61.302;2023-04-24T12:57:57;28.02;15.24
74376;HTU21D;62812;55.188;61.302;2023-04-24T13:00:32;28.06;15.10
74376;HTU21D;62812;55.188;61.302;2023-04-24T13:03:22;28.02;15.10
74376;HTU21D;62812;55.188;61.302;2023-04-24T13:06:05;28.09;14.99
74376;HTU21D;62812;55.188;61.302;2023-04-24T13:08:41;28.03;15.19
74376;HTU21D;62812;55.188;61.302;2023-04-24T13:11:14;28.10;14.95
74376;HTU21D;62812;55.188;61.302;2023-04-24T13:13:44;28.09;14.93
74376;HTU21D;62812;55.188;61.302;2023-04-24T13:16:27;27.85;15.39
74376;HTU21D;62812;55.188;61.302;2023-04-24T13:18:56;27.50;15.72
74376;HTU21D;62812;55.188;61.302;2023-04-24T13:21:24;27.68;15.57
74376;HTU21D;62812;55.188;61.302;2023-04-24T13:23:55;27.43;15.82
74376;HTU21D;62812;55.188;61.302;2023-04-24T13:26:24;27.75;15.01
74376;HTU21D;62812;55.188;61.302;2023-04-24T13:28:53;27.86;14.59
74376;HTU21D;62812;55.188;61.302;2023-04-24T13:31:22;27.80;14.80
74376;HTU21D;62812;55.188;61.302;2023-04-24T13:34:10;27.86;14.44
74376;HTU21D;62812;55.188;61.302;2023-04-24T13:42:56;27.90;14.70
74376;HTU21D;62812;55.188;61.302;2023-04-24T13:45:24;27.91;14.94
74376;HTU21D;62812;55.188;61.302;2023-04-24T13:47:55;27.82;15.71
74376;HTU21D;62812;55.188;61.302;2023-04-24T13:56:49;27.88;15.84
74376;HTU21D;62812;55.188;61.302;2023-04-24T13:59:17;27.83;15.52
74376;HTU21D;62812;55.188;61.302;2023-04-24T14:01:52;27.82;15.52
74376;HTU21D;62812;55.188;61.302;2023-04-24T14:07:29;27.91;14.15
74376;HTU21D;62812;55.188;61.302;2023-04-24T14:10:24;27.78;14.25
74376;HTU21D;62812;55.188;61.302;2023-04-24T14:15:58;27.42;14.84
74376;HTU21D;62812;55.188;61.302;2023-04-24T14:21:16;27.45;15.44
74376;HTU21D;62812;55.188;61.302;2023-04-24T14:23:44;27.50;15.41
74376;HTU21D;62812;55.188;61.302;2023-04-24T14:26:12;27.50;14.87
74376;HTU21D;62812;55.188;61.302;2023-04-24T14:28:41;27.54;14.82
74376;HTU21D;62812;55.188;61.302;2023-04-24T14:37:37;27.56;14.42
74376;HTU21D;62812;55.188;61.302;2023-04-24T14:40:11;27.31;14.73
74376;HTU21D;62812;55.188;61.302;2023-04-24T14:46:29;26.36;16.12
74376;HTU21D;62812;55.188;61.302;2023-04-24T16:16:33;18.54;26.91
74376;HTU21D;62812;55.188;61.302;2023-04-24T16:19:26;18.47;26.30
74376;HTU21D;62812;55.188;61.302;2023-04-24T16:22:13;18.40;27.41
74376;HTU21D;62812;55.188;61.302;2023-04-24T16:24:51;18.28;26.84
74376;HTU21D;62812;55.188;61.302;2023-04-24T16:27:27;18.19;27.05
74376;HTU21D;62812;55.188;61.302;2023-04-24T16:30:05;18.14;27.26
74376;HTU21D;62812;55.188;61.302;2023-04-24T16:32:43;18.15;29.14
74376;HTU21D;62812;55.188;61.302;2023-04-24T16:35:46;18.11;27.30
74376;HTU21D;62812;55.188;61.302;2023-04-24T16:38:50;18.10;27.42
74376;HTU21D;62812;55.188;61.302;2023-04-24T16:41:25;18.08;27.70
74376;HTU21D;62812;55.188;61.302;2023-04-24T16:43:56;18.03;27.64
74376;HTU21D;62812;55.188;61.302;2023-04-24T18:04:37;19.92;25.33
74376;HTU21D;62812;55.188;61.302;2023-04-24T18:07:06;19.91;29.01
74376;HTU21D;62812;55.188;61.302;2023-04-24T18:09:36;19.94;28.97
74376;HTU21D;62812;55.188;61.302;2023-04-24T18:12:04;19.89;29.43
74376;HTU21D;62812;55.188;61.302;2023-04-24T18:14:35;19.94;29.53
74376;HTU21D;62812;55.188;61.302;2023-04-24T18:17:08;20.07;29.49
74376;HTU21D;62812;55.188;61.302;2023-04-24T18:19:38;20.10;26.33
74376;HTU21D;62812;55.188;61.302;2023-04-24T18:22:06;19.74;29.56
74376;HTU21D;62812;55.188;61.302;2023-04-24T18:25:00;19.73;30.24
74376;HTU21D;62812;55.188;61.302;2023-04-24T18:27:28;19.52;30.53
74376;HTU21D;62812;55.188;61.302;2023-04-24T18:30:32;19.60;30.59
74376;HTU21D;62812;55.188;61.302;2023-04-24T18:33:06;19.61;27.32
74376;HTU21D;62812;55.188;61.302;2023-04-24T18:36:00;19.55;30.50
74376;HTU21D;62812;55.188;61.302;2023-04-24T18:38:38;19.37;25.64
74376;HTU21D;62812;55.188;61.302;2023-04-24T18:41:09;19.36;30.20
74376;HTU21D;62812;55.188;61.302;2023-04-24T18:43:40;19.35;31.22
74376;HTU21D;62812;55.188;61.302;2023-04-24T18:46:08;19.46;31.28
74376;HTU21D;62812;55.188;61.302;2023-04-24T18:48:35;19.51;31.09
74376;HTU21D;62812;55.188;61.302;2023-04-24T18:51:09;19.61;30.93
74376;HTU21D;62812;55.188;61.302;2023-04-24T18:53:39;19.70;30.58
74376;HTU21D;62812;55.188;61.302;2023-04-24T18:56:06;19.87;30.24
74376;HTU21D;62812;55.188;61.302;2023-04-24T18:58:33;19.95;28.78
74376;HTU21D;62812;55.188;61.302;2023-04-24T19:01:02;20.02;29.61
74376;HTU21D;62812;55.188;61.302;2023-04-24T19:03:30;20.13;29.85
74376;HTU21D;62812;55.188;61.302;2023-04-24T19:09:04;20.19;31.41
74376;HTU21D;62812;55.188;61.302;2023-04-24T19:11:41;20.28;31.97
74376;HTU21D;62812;55.188;61.302;2023-04-24T19:14:12;20.32;32.17
74376;HTU21D;62812;55.188;61.302;2023-04-24T19:23:33;19.98;26.66
74376;HTU21D;62812;55.188;61.302;2023-04-24T19:26:03;19.81;33.27
74376;HTU21D;62812;55.188;61.302;2023-04-24T19:28:31;19.67;29.56
74376;HTU21D;62812;55.188;61.302;2023-04-24T19:30:58;19.60;34.72
74376;HTU21D;62812;55.188;61.302;2023-04-24T19:33:25;19.56;34.54
74376;HTU21D;62812;55.188;61.302;2023-04-24T19:35:52;19.58;35.03
74376;HTU21D;62812;55.188;61.302;2023-04-24T19:38:21;19.65;34.76
74376;HTU21D;62812;55.188;61.302;2023-04-24T19:40:49;19.67;34.55
74376;HTU21D;62812;55.188;61.302;2023-04-24T19:43:19;19.86;34.57
74376;HTU21D;62812;55.188;61.302;2023-04-24T19:45:47;19.88;34.38
74376;HTU21D;62812;55.188;61.302;2023-04-24T19:48:15;19.87;33.79
74376;HTU21D;62812;55.188;61.302;2023-04-24T19:50:42;19.86;34.17
74376;HTU21D;62812;55.188;61.302;2023-04-24T19:53:10;19.80;34.70
74376;HTU21D;62812;55.188;61.302;2023-04-24T19:55:37;19.68;34.70
74376;HTU21D;62812;55.188;61.302;2023-04-24T19:58:05;19.83;34.89
74376;HTU21D;62812;55.188;61.302;2023-04-24T20:00:35;19.82;34.41
74376;HTU21D;62812;55.188;61.302;2023-04-24T20:03:03;19.88;33.76
74376;HTU21D;62812;55.188;61.302;2023-04-24T20:05:30;19.90;33.34
74376;HTU21D;62812;55.188;61.302;2023-04-24T20:07:59;19.92;32.51
74376;HTU21D;62812;55.188;61.302;2023-04-24T20:10:27;19.87;31.99
74376;HTU21D;62812;55.188;61.302;2023-04-24T20:12:57;19.89;31.17
74376;HTU21D;62812;55.188;61.302;2023-04-24T20:15:28;19.54;25.48
74376;HTU21D;62812;55.188;61.302;2023-04-24T20:17:56;18.73;25.70
74376;HTU21D;62812;55.188;61.302;2023-04-24T20:20:24;18.25;28.12
74376;HTU21D;62812;55.188;61.302;2023-04-24T20:22:51;17.78;27.61
74376;HTU21D;62812;55.188;61.302;2023-04-24T20:25:19;17.29;28.05
74376;HTU21D;62812;55.188;61.302;2023-04-24T20:27:48;16.90;29.86
74376;HTU21D;62812;55.188;61.302;2023-04-24T20:30:15;16.63;30.61
74376;HTU21D;62812;55.188;61.302;2023-04-24T20:32:43;16.39;30.38
74376;HTU21D;62812;55.188;61.302;2023-04-24T20:35:13;16.13;30.43
74376;HTU21D;62812;55.188;61.302;2023-04-24T20:37:40;15.97;31.78
74376;HTU21D;62812;55.188;61.302;2023-04-24T20:40:09;15.82;31.30
74376;HTU21D;62812;55.188;61.302;2023-04-24T20:42:36;15.69;31.75
74376;HTU21D;62812;55.188;61.302;2023-04-24T20:45:04;15.53;31.80
74376;HTU21D;62812;55.188;61.302;2023-04-24T20:47:32;15.45;31.57
74376;HTU21D;62812;55.188;61.302;2023-04-24T20:49:59;15.34;31.79
74376;HTU21D;62812;55.188;61.302;2023-04-24T20:52:30;15.26;32.54
74376;HTU21D;62812;55.188;61.302;2023-04-24T20:54:57;15.16;32.78
74376;HTU21D;62812;55.188;61.302;2023-04-24T20:57:24;15.07;33.11
74376;HTU21D;62812;55.188;61.302;2023-04-24T20:59:51;15.02;33.50
74376;HTU21D;62812;55.188;61.302;2023-04-24T21:02:22;14.91;32.97
74376;HTU21D;62812;55.188;61.302;2023-04-24T21:04:49;14.87;33.39
74376;HTU21D;62812;55.188;61.302;2023-04-24T21:07:18;14.82;33.47
74376;HTU21D;62812;55.188;61.302;2023-04-24T21:09:51;14.77;34.16
74376;HTU21D;62812;55.188;61.302;2023-04-24T21:12:18;14.72;34.51
74376;HTU21D;62812;55.188;61.302;2023-04-24T21:14:45;14.69;33.87
74376;HTU21D;62812;55.188;61.302;2023-04-24T21:17:13;14.66;34.21
74376;HTU21D;62812;55.188;61.302;2023-04-24T21:19:40;14.60;33.98
74376;HTU21D;62812;55.188;61.302;2023-04-24T21:22:07;14.57;34.25
74376;HTU21D;62812;55.188;61.302;2023-04-24T21:24:34;14.52;33.84
74376;HTU21D;62812;55.188;61.302;2023-04-24T21:27:03;14.53;34.33
74376;HTU21D;62812;55.188;61.302;2023-04-24T21:29:31;14.50;33.92
74376;HTU21D;62812;55.188;61.302;2023-04-24T21:31:58;14.45;33.78
74376;HTU21D;62812;55.188;61.302;2023-04-24T21:34:26;14.39;34.06
74376;HTU21D;62812;55.188;61.302;2023-04-24T21:36:53;14.34;34.11
74376;HTU21D;62812;55.188;61.302;2023-04-24T21:39:20;14.29;33.96
74376;HTU21D;62812;55.188;61.302;2023-04-24T21:41:47;14.27;34.07
74376;HTU21D;62812;55.188;61.302;2023-04-24T21:44:15;14.28;34.32
74376;HTU21D;62812;55.188;61.302;2023-04-24T21:46:42;14.23;34.31
74376;HTU21D;62812;55.188;61.302;2023-04-24T21:49:09;14.19;33.71
74376;HTU21D;62812;55.188;61.302;2023-04-24T21:51:36;14.15;34.01
74376;HTU21D;62812;55.188;61.302;2023-04-24T21:54:03;14.14;33.98
74376;HTU21D;62812;55.188;61.302;2023-04-24T21:56:30;14.15;35.11
74376;HTU21D;62812;55.188;61.302;2023-04-24T21:58:57;14.17;34.10
74376;HTU21D;62812;55.188;61.302;2023-04-24T22:01:25;14.18;34.10
74376;HTU21D;62812;55.188;61.302;2023-04-24T22:03:52;14.17;34.25
74376;HTU21D;62812;55.188;61.302;2023-04-24T22:06:19;14.17;33.99
74376;HTU21D;62812;55.188;61.302;2023-04-24T22:08:47;14.18;34.30
74376;HTU21D;62812;55.188;61.302;2023-04-24T22:11:16;14.19;34.55
74376;HTU21D;62812;55.188;61.302;2023-04-24T22:13:43;14.20;34.30
74376;HTU21D;62812;55.188;61.302;2023-04-24T22:16:10;14.17;34.21
74376;HTU21D;62812;55.188;61.302;2023-04-24T22:18:38;14.15;34.05
74376;HTU21D;62812;55.188;61.302;2023-04-24T22:21:05;14.13;34.48
74376;HTU21D;62812;55.188;61.302;2023-04-24T22:23:32;14.12;35.98
74376;HTU21D;62812;55.188;61.302;2023-04-24T22:25:59;14.11;35.01
74376;HTU21D;62812;55.188;61.302;2023-04-24T22:28:27;14.14;34.36
74376;HTU21D;62812;55.188;61.302;2023-04-24T22:30:53;14.14;34.73
74376;HTU21D;62812;55.188;61.302;2023-04-24T22:33:20;14.10;34.54
74376;HTU21D;62812;55.188;61.302;2023-04-24T22:35:49;14.09;34.69
74376;HTU21D;62812;55.188;61.302;2023-04-24T22:38:16;14.10;34.31
74376;HTU21D;62812;55.188;61.302;2023-04-24T22:40:43;14.14;34.53
74376;HTU21D;62812;55.188;61.302;2023-04-24T22:43:10;14.18;34.89
74376;HTU21D;62812;55.188;61.302;2023-04-24T22:45:36;14.21;34.28
74376;HTU21D;62812;55.188;61.302;2023-04-24T22:48:03;14.27;40.01
74376;HTU21D;62812;55.188;61.302;2023-04-24T22:50:31;14.27;34.63
74376;HTU21D;62812;55.188;61.302;2023-04-24T22:52:59;14.25;34.23
74376;HTU21D;62812;55.188;61.302;2023-04-24T22:55:25;14.17;34.41
74376;HTU21D;62812;55.188;61.302;2023-04-24T22:57:52;14.12;34.88
74376;HTU21D;62812;55.188;61.302;2023-04-24T23:00:19;14.06;34.66
74376;HTU21D;62812;55.188;61.302;2023-04-24T23:02:46;14.05;35.20
74376;HTU21D;62812;55.188;61.302;2023-04-24T23:05:13;14.03;35.05
74376;HTU21D;62812;55.188;61.302;2023-04-24T23:07:40;13.91;35.84
74376;HTU21D;62812;55.188;61.302;2023-04-24T23:10:09;13.86;35.14
74376;HTU21D;62812;55.188;61.302;2023-04-24T23:12:37;13.85;35.02
74376;HTU21D;62812;55.188;61.302;2023-04-24T23:15:06;13.83;35.61
74376;HTU21D;62812;55.188;61.302;2023-04-24T23:17:33;13.77;35.81
74376;HTU21D;62812;55.188;61.302;2023-04-24T23:20:00;13.74;35.53
74376;HTU21D;62812;55.188;61.302;2023-04-24T23:22:27;13.69;36.34
74376;HTU21D;62812;55.188;61.302;2023-04-24T23:24:53;13.70;35.79
74376;HTU21D;62812;55.188;61.302;2023-04-24T23:27:23;13.65;35.76
74376;HTU21D;62812;55.188;61.302;2023-04-24T23:29:49;13.61;35.96
74376;HTU21D;62812;55.188;61.302;2023-04-24T23:32:17;13.56;36.48
74376;HTU21D;62812;55.188;61.302;2023-04-24T23:34:43;13.51;36.72
74376;HTU21D;62812;55.188;61.302;2023-04-24T23:37:11;13.47;36.41
74376;HTU21D;62812;55.188;61.302;2023-04-24T23:39:38;13.41;36.47
74376;HTU21D;62812;55.188;61.302;2023-04-24T23:42:05;13.39;36.29
74376;HTU21D;62812;55.188;61.302;2023-04-24T23:44:35;13.34;36.09
74376;HTU21D;62812;55.188;61.302;2023-04-24T23:47:02;13.27;35.89
74376;HTU21D;62812;55.188;61.302;2023-04-24T23:49:29;13.29;36.42
74376;HTU21D;62812;55.188;61.302;2023-04-24T23:51:57;13.37;37.99
74376;HTU21D;62812;55.188;61.302;2023-04-24T23:54:24;13.38;36.80
74376;HTU21D;62812;55.188;61.302;2023-04-24T23:56:51;13.38;36.34